Time;durP1;ratioP1;P1;durP2;ratioP2;P2;SDS_P1;SDS_P2;PMS_P1;PMS_P2;Temp;Humidity;BMP_temperature;BMP_pressure;BME280_temperature;BME280_humidity;BME280_pressure;Samples;Min_cycle;Max_cycle;Signal;HPM_P1;HPM_P2
2023/02/23 00:02:04;;;;;;;16.90;6.13;;;;;;;3.14;100.00;100646.91;5002094;28;20660;-70
2023/02/23 00:04:32;;;;;;;9.23;5.30;;;;;;;3.12;100.00;100640.91;5003444;28;20228;-71
2023/02/23 00:06:59;;;;;;;19.30;5.67;;;;;;;3.12;100.00;100643.47;5003421;28;20209;-71
2023/02/23 00:09:26;;;;;;;14.30;5.67;;;;;;;3.11;100.00;100649.47;5000098;28;20224;-71
2023/02/23 00:11:54;;;;;;;10.87;5.67;;;;;;;3.10;100.00;100646.91;4999947;28;20192;-71
2023/02/23 00:14:23;;;;;;;15.43;5.50;;;;;;;3.08;100.00;100640.88;4997648;28;20678;-70
2023/02/23 00:16:50;;;;;;;15.53;5.23;;;;;;;3.06;100.00;100640.00;5004744;28;20208;-71
2023/02/23 00:19:16;;;;;;;16.30;5.57;;;;;;;3.04;100.00;100640.00;5000425;28;20744;-72
2023/02/23 00:21:44;;;;;;;19.43;6.17;;;;;;;3.01;100.00;100635.69;5000381;28;20221;-71
2023/02/23 00:24:14;;;;;;;14.23;5.20;;;;;;;2.99;100.00;100634.84;4999368;28;20211;-71
2023/02/23 00:26:41;;;;;;;17.20;6.33;;;;;;;2.96;100.00;100633.97;5001863;28;20698;-71
2023/02/23 00:29:15;;;;;;;15.30;5.67;;;;;;;2.94;100.00;100633.94;5003686;28;20625;-71
2023/02/23 00:31:43;;;;;;;17.97;6.97;;;;;;;2.90;100.00;100629.63;5002641;28;20794;-71
2023/02/23 00:34:10;;;;;;;17.23;6.20;;;;;;;2.90;100.00;100633.91;5001782;28;20228;-70
2023/02/23 00:36:38;;;;;;;13.47;5.53;;;;;;;2.88;100.00;100635.63;5002810;28;20729;-71
2023/02/23 00:39:17;;;;;;;14.27;6.20;;;;;;;2.86;100.00;100627.88;5003512;28;20194;-72
2023/02/23 00:41:45;;;;;;;14.60;5.50;;;;;;;2.85;100.00;100633.91;5065624;23;20224;-73
2023/02/23 00:44:14;;;;;;;16.87;5.70;;;;;;;2.82;100.00;100632.16;5023511;28;20565;-72
2023/02/23 00:46:42;;;;;;;15.53;6.07;;;;;;;2.80;100.00;100631.28;5026280;28;20203;-72
2023/02/23 00:49:10;;;;;;;16.27;6.00;;;;;;;2.80;100.00;100623.56;5007965;28;20204;-72
2023/02/23 00:51:38;;;;;;;16.87;6.20;;;;;;;2.77;100.00;100627.84;5004965;28;20233;-73
2023/02/23 00:54:07;;;;;;;16.37;7.07;;;;;;;2.75;100.00;100629.56;5004630;28;20623;-72
2023/02/23 00:56:33;;;;;;;14.27;6.80;;;;;;;2.74;100.00;100632.97;5021713;28;20220;-72
2023/02/23 00:59:00;;;;;;;15.97;6.80;;;;;;;2.73;100.00;100628.69;5002383;28;20188;-72
2023/02/23 01:01:31;;;;;;;16.23;6.27;;;;;;;2.69;100.00;100627.81;5015914;28;20204;-72
2023/02/23 01:03:57;;;;;;;16.07;5.83;;;;;;;2.72;100.00;100630.38;5019765;28;20209;-72
2023/02/23 01:06:23;;;;;;;17.00;5.93;;;;;;;2.70;100.00;100631.25;5009163;28;20289;-73
2023/02/23 01:08:55;;;;;;;20.00;7.13;;;;;;;2.66;100.00;100625.22;5007565;28;20205;-72
2023/02/23 01:11:26;;;;;;;11.80;6.20;;;;;;;2.66;100.00;100622.63;5020939;28;20278;-73
2023/02/23 01:13:55;;;;;;;17.40;6.70;;;;;;;2.65;100.00;100623.47;5026975;28;20199;-73
2023/02/23 01:16:26;;;;;;;17.83;7.00;;;;;;;2.62;100.00;100623.44;5025694;28;20588;-72
2023/02/23 01:18:54;;;;;;;19.43;6.53;;;;;;;2.60;100.00;100628.63;5008591;28;20206;-73
2023/02/23 01:21:23;;;;;;;12.93;6.87;;;;;;;2.58;100.00;100619.13;5021372;28;20657;-72
2023/02/23 01:23:50;;;;;;;17.63;7.53;;;;;;;2.58;100.00;100620.00;5009520;28;20219;-72
2023/02/23 01:26:18;;;;;;;16.50;7.17;;;;;;;2.56;100.00;100618.28;5023081;28;20657;-73
2023/02/23 01:28:48;;;;;;;15.17;6.57;;;;;;;2.56;100.00;100619.13;5020799;28;20660;-72
2023/02/23 01:31:15;;;;;;;17.80;7.47;;;;;;;2.55;100.00;100617.41;5025149;28;20307;-73
2023/02/23 01:33:41;;;;;;;11.80;6.63;;;;;;;2.53;100.00;100619.09;5023543;28;20250;-73
2023/02/23 01:36:08;;;;;;;16.10;6.67;;;;;;;2.53;100.00;100607.94;5004397;28;20287;-72
2023/02/23 01:38:34;;;;;;;16.33;7.47;;;;;;;2.51;100.00;100607.94;5009093;28;20194;-73
2023/02/23 01:41:01;;;;;;;17.13;7.00;;;;;;;2.52;100.00;100607.09;4994807;28;20315;-73
2023/02/23 01:43:28;;;;;;;15.87;6.80;;;;;;;2.50;100.00;100603.66;5009665;28;20707;-72
2023/02/23 01:45:57;;;;;;;14.83;6.87;;;;;;;2.48;100.00;100602.78;5004846;28;20296;-72
2023/02/23 01:48:27;;;;;;;16.80;7.63;;;;;;;2.46;100.00;100609.63;5004088;28;20205;-73
2023/02/23 01:50:57;;;;;;;16.37;6.90;;;;;;;2.47;100.00;100604.47;5002315;28;20235;-73
2023/02/23 01:53:26;;;;;;;15.67;6.83;;;;;;;2.46;100.00;100602.78;5004014;28;20202;-72
2023/02/23 01:55:55;;;;;;;16.03;7.17;;;;;;;2.45;100.00;100595.91;5019426;28;20207;-72
2023/02/23 01:58:24;;;;;;;15.60;7.90;;;;;;;2.44;100.00;100601.03;5013208;28;20254;-73
2023/02/23 02:00:57;;;;;;;17.93;7.20;;;;;;;2.43;100.00;100595.03;5001325;28;20624;-72
2023/02/23 02:03:28;;;;;;;23.40;7.60;;;;;;;2.44;100.00;100588.16;5002225;28;20291;-72
2023/02/23 02:05:55;;;;;;;17.00;7.37;;;;;;;2.43;100.00;100586.47;5007123;28;20604;-72
2023/02/23 02:08:26;;;;;;;18.03;7.37;;;;;;;2.41;100.00;100585.56;4999173;28;20196;-72
2023/02/23 02:10:54;;;;;;;17.77;7.37;;;;;;;2.40;100.00;100589.84;5001231;28;20266;-72
2023/02/23 02:13:25;;;;;;;18.10;7.20;;;;;;;2.40;100.00;100582.13;5005575;28;20200;-72
2023/02/23 02:16:07;;;;;;;18.80;8.20;;;;;;;2.40;100.00;100576.13;5023256;28;20199;-72
2023/02/23 02:18:47;;;;;;;23.73;8.23;;;;;;;2.39;100.00;100577.84;5017904;28;20203;-73
2023/02/23 02:21:56;;;;;;;18.47;7.43;;;;;;;2.40;100.00;100568.41;5022352;28;20596;-73
2023/02/23 02:24:52;;;;;;;21.30;7.63;;;;;;;2.36;100.00;100571.81;4999403;28;20196;-71
2023/02/23 02:27:33;;;;;;;18.33;6.97;;;;;;;2.35;100.00;100570.94;5001231;28;20195;-71
2023/02/23 02:30:36;;;;;;;23.87;7.80;;;;;;;2.32;100.00;100575.22;5025388;28;20229;-72
2023/02/23 02:33:25;;;;;;;20.80;7.67;;;;;;;2.31;100.00;100578.66;5002429;28;20203;-71
2023/02/23 02:36:22;;;;;;;15.90;7.10;;;;;;;2.30;100.00;100572.63;5004715;28;20206;-72
2023/02/23 02:38:57;;;;;;;19.27;7.47;;;;;;;2.27;100.00;100576.06;5021840;28;20228;-71
2023/02/23 02:41:34;;;;;;;14.30;7.03;;;;;;;2.25;100.00;100575.19;5021727;28;20219;-71
2023/02/23 02:44:08;;;;;;;22.63;8.67;;;;;;;2.23;100.00;100578.56;5007446;28;20200;-71
2023/02/23 02:46:40;;;;;;;17.53;7.50;;;;;;;2.22;100.00;100576.88;5017230;28;20199;-71
2023/02/23 02:49:11;;;;;;;16.13;7.47;;;;;;;2.22;100.00;100571.72;4996814;28;20205;-71
2023/02/23 02:51:47;;;;;;;22.80;8.47;;;;;;;2.21;100.00;100575.13;4998527;28;20233;-71
2023/02/23 02:54:24;;;;;;;17.57;7.63;;;;;;;2.22;100.00;100574.31;5006922;28;20205;-71
2023/02/23 02:56:56;;;;;;;21.07;7.93;;;;;;;2.21;100.00;100570.00;5022951;28;20742;-71
2023/02/23 04:18:23;;;;;;;19.43;8.97;;;;;;;1.82;100.00;100525.13;5007259;28;20414;-71
2023/02/23 04:20:49;;;;;;;19.27;9.40;;;;;;;1.81;100.00;100519.13;5007451;28;20286;-71
2023/02/23 04:23:16;;;;;;;16.30;8.67;;;;;;;1.82;100.00;100522.56;5025910;28;20196;-71
2023/02/23 04:25:43;;;;;;;17.20;9.23;;;;;;;1.82;100.00;100514.84;5020476;28;20196;-71
2023/02/23 04:28:09;;;;;;;22.83;9.37;;;;;;;1.83;100.00;100520.00;5005986;28;20552;-71
2023/02/23 04:30:36;;;;;;;18.97;9.17;;;;;;;1.82;100.00;100507.97;5006072;28;20215;-71
2023/02/23 04:33:02;;;;;;;21.27;9.57;;;;;;;1.85;100.00;100514.88;5020343;28;20204;-71
2023/02/23 04:35:30;;;;;;;22.67;9.63;;;;;;;1.86;100.00;100508.84;5023915;28;20234;-71
2023/02/23 04:37:57;;;;;;;25.83;10.70;;;;;;;1.87;100.00;100508.88;5028468;28;20199;-71
2023/02/23 04:40:24;;;;;;;19.20;9.60;;;;;;;1.88;100.00;100513.19;5018548;28;20240;-71
2023/02/23 04:42:50;;;;;;;24.93;10.23;;;;;;;1.89;100.00;100506.31;5021871;28;20211;-72
2023/02/23 04:45:17;;;;;;;20.67;9.20;;;;;;;1.91;100.00;100514.91;5024839;28;20611;-71
2023/02/23 04:47:47;;;;;;;24.33;10.23;;;;;;;1.90;100.00;100505.50;5018740;28;20287;-71
2023/02/23 04:50:13;;;;;;;21.67;9.13;;;;;;;1.91;100.00;100503.75;5021628;28;20689;-71
2023/02/23 04:52:42;;;;;;;16.47;9.23;;;;;;;1.91;100.00;100493.47;5008774;28;20212;-71
2023/02/23 04:55:15;;;;;;;26.77;9.73;;;;;;;1.91;100.00;100489.19;5022318;28;20213;-71
2023/02/23 04:57:41;;;;;;;16.03;9.00;;;;;;;1.89;100.00;100476.31;5003928;28;20240;-71
2023/02/23 05:00:09;;;;;;;22.83;9.20;;;;;;;1.91;100.00;100478.06;5020765;28;20224;-71
2023/02/23 05:02:35;;;;;;;20.77;10.70;;;;;;;1.91;100.00;100481.47;5005661;28;20205;-72
2023/02/23 05:05:02;;;;;;;24.70;10.83;;;;;;;1.91;100.00;100489.19;5005919;28;20978;-71
2023/02/23 05:07:28;;;;;;;27.13;11.27;;;;;;;1.91;100.00;100489.19;5017928;28;20203;-71
2023/02/23 05:09:56;;;;;;;18.60;9.83;;;;;;;1.90;100.00;100497.78;5021379;28;20227;-71
2023/02/23 05:12:22;;;;;;;20.27;9.60;;;;;;;1.89;100.00;100494.31;5025792;28;20191;-71
2023/02/23 05:14:49;;;;;;;17.80;9.37;;;;;;;1.89;100.00;100504.59;5020785;28;20207;-71
2023/02/23 05:17:15;;;;;;;22.90;9.23;;;;;;;1.89;100.00;100496.03;5022020;28;20542;-71
2023/02/23 05:19:41;;;;;;;19.93;9.43;;;;;;;1.88;100.00;100490.03;5025129;28;20552;-71
2023/02/23 05:22:11;;;;;;;23.83;10.23;;;;;;;1.87;100.00;100495.16;5016055;28;20577;-71
2023/02/23 05:24:37;;;;;;;22.70;10.17;;;;;;;1.87;100.00;100492.59;5019386;28;20197;-71
2023/02/23 05:27:05;;;;;;;19.53;10.30;;;;;;;1.86;100.00;100498.56;5024887;28;20192;-71
2023/02/23 05:29:32;;;;;;;27.43;10.13;;;;;;;1.84;100.00;100498.56;5018710;28;20204;-71
2023/02/23 05:31:58;;;;;;;31.30;9.80;;;;;;;1.85;100.00;100507.16;5023738;28;20231;-71
2023/02/23 05:34:26;;;;;;;19.77;9.80;;;;;;;1.84;100.00;100508.84;5023190;28;20204;-71
2023/02/23 05:36:53;;;;;;;20.73;10.07;;;;;;;1.83;100.00;100496.84;5017697;28;20204;-71
2023/02/23 05:39:19;;;;;;;22.27;10.07;;;;;;;1.84;100.00;100510.56;5023409;28;20203;-71
2023/02/23 05:41:46;;;;;;;25.43;10.20;;;;;;;1.84;100.00;100516.56;5024859;28;20912;-71
2023/02/23 05:44:14;;;;;;;17.93;9.00;;;;;;;1.83;100.00;100508.81;5007059;28;20200;-71
2023/02/23 05:46:40;;;;;;;20.00;9.30;;;;;;;1.83;100.00;100520.00;5020720;28;20284;-71
2023/02/23 05:49:07;;;;;;;19.53;9.50;;;;;;;1.86;100.00;100516.56;5023200;28;20203;-71
2023/02/23 05:51:34;;;;;;;27.27;10.80;;;;;;;1.86;100.00;100516.56;5014972;28;20672;-71
2023/02/23 05:54:01;;;;;;;22.23;12.00;;;;;;;1.88;100.00;100520.00;5004911;28;20215;-71
2023/02/23 05:56:27;;;;;;;18.03;9.37;;;;;;;1.89;100.00;100519.19;5021778;28;20208;-71
2023/02/23 05:58:56;;;;;;;22.10;10.60;;;;;;;1.91;100.00;100519.19;5019725;28;20192;-71
2023/02/23 06:01:25;;;;;;;22.83;10.20;;;;;;;1.91;100.00;100525.19;5021616;28;20220;-71
2023/02/23 06:03:51;;;;;;;21.00;9.60;;;;;;;1.92;100.00;100516.63;5023747;28;20199;-72
2023/02/23 06:06:19;;;;;;;22.27;10.13;;;;;;;1.89;100.00;100514.88;5024831;28;20202;-71
2023/02/23 06:08:46;;;;;;;20.33;10.27;;;;;;;1.91;100.00;100522.63;5021630;28;20196;-71
2023/02/23 06:11:13;;;;;;;23.47;10.03;;;;;;;1.92;100.00;100519.22;5011907;28;20319;-71
2023/02/23 06:13:40;;;;;;;27.33;10.77;;;;;;;1.93;100.00;100522.63;5025706;28;20286;-71
2023/02/23 06:16:08;;;;;;;23.60;10.30;;;;;;;1.94;100.00;100520.06;5003858;28;20803;-71
2023/02/23 06:18:38;;;;;;;20.70;10.03;;;;;;;1.95;100.00;100520.94;5006286;28;20250;-71
2023/02/23 06:21:05;;;;;;;18.23;10.17;;;;;;;1.97;100.00;100519.22;5024125;28;20219;-71
2023/02/23 06:23:32;;;;;;;18.07;10.03;;;;;;;2.00;100.00;100521.81;5024883;28;20219;-71
2023/02/23 06:25:59;;;;;;;22.23;9.90;;;;;;;2.02;100.00;100521.00;5021331;28;20196;-71
2023/02/23 06:28:26;;;;;;;19.60;10.40;;;;;;;2.03;100.00;100522.72;5001724;28;20200;-71
2023/02/23 06:30:53;;;;;;;24.90;10.57;;;;;;;2.04;100.00;100518.41;5019290;28;20219;-71
2023/02/23 06:33:20;;;;;;;20.07;10.43;;;;;;;2.07;100.00;100527.00;5026913;28;20199;-71
2023/02/23 06:35:53;;;;;;;28.30;12.70;;;;;;;2.10;100.00;100528.75;4995505;28;20209;-71
2023/02/23 06:38:20;;;;;;;25.07;10.33;;;;;;;2.14;100.00;100533.06;5022199;28;20200;-71
2023/02/23 06:40:47;;;;;;;23.13;10.43;;;;;;;2.17;100.00;100533.09;5014930;28;20236;-71
2023/02/23 06:43:13;;;;;;;22.33;10.40;;;;;;;2.19;100.00;100525.41;5021858;28;20471;-71
2023/02/23 06:45:39;;;;;;;21.43;10.43;;;;;;;2.23;100.00;100532.28;5024548;28;20295;-71
2023/02/23 06:48:06;;;;;;;22.70;10.07;;;;;;;2.25;100.00;100530.56;5020731;28;20204;-71
2023/02/23 06:50:33;;;;;;;21.10;10.33;;;;;;;2.24;100.00;100536.56;5022142;28;20223;-71
2023/02/23 06:53:01;;;;;;;29.47;10.47;;;;;;;2.26;100.00;100528.00;5006222;28;20200;-71
2023/02/23 06:55:27;;;;;;;23.57;10.43;;;;;;;2.29;100.00;100529.75;5003535;28;20676;-71
2023/02/23 06:57:53;;;;;;;22.87;9.97;;;;;;;2.31;100.00;100522.03;5018434;28;20192;-71
2023/02/23 07:00:21;;;;;;;23.57;9.73;;;;;;;2.35;100.00;100519.47;5020041;28;20223;-71
2023/02/23 07:02:47;;;;;;;21.43;9.67;;;;;;;2.37;100.00;100530.63;5016257;28;20706;-71
2023/02/23 07:05:13;;;;;;;28.87;10.37;;;;;;;2.41;100.00;100527.25;5025495;28;20231;-71
2023/02/23 07:07:40;;;;;;;23.53;10.63;;;;;;;2.44;100.00;100523.81;5026383;28;20201;-71
2023/02/23 07:10:10;;;;;;;24.53;10.63;;;;;;;2.49;100.00;100521.28;5028836;28;20439;-71
2023/02/23 07:12:36;;;;;;;26.87;10.30;;;;;;;2.51;100.00;100527.28;5030240;28;20188;-71
2023/02/23 07:15:02;;;;;;;20.30;9.83;;;;;;;2.57;100.00;100532.47;5023711;28;20214;-71
2023/02/23 07:17:29;;;;;;;24.63;10.77;;;;;;;2.61;100.00;100539.38;5024572;28;20204;-71
2023/02/23 07:19:56;;;;;;;24.70;10.50;;;;;;;2.64;100.00;100534.25;5018465;28;20644;-71
2023/02/23 07:22:24;;;;;;;16.83;9.50;;;;;;;2.67;100.00;100533.38;5026922;28;20684;-71
2023/02/23 07:24:50;;;;;;;21.20;9.70;;;;;;;2.73;100.00;100542.00;5022394;28;20192;-71
2023/02/23 07:27:18;;;;;;;24.63;10.10;;;;;;;2.82;100.00;100539.47;5001614;28;20221;-71
2023/02/23 07:29:44;;;;;;;20.27;10.77;;;;;;;2.88;100.00;100536.03;5022361;28;20270;-72
2023/02/23 07:32:10;;;;;;;22.73;10.47;;;;;;;2.95;100.00;100542.09;5017535;28;20681;-71
2023/02/23 07:34:38;;;;;;;15.80;9.17;;;;;;;3.00;100.00;100542.97;5026811;28;20192;-71
2023/02/23 07:37:05;;;;;;;21.03;9.40;;;;;;;3.06;100.00;100550.72;5004119;28;20291;-71
2023/02/23 07:39:31;;;;;;;19.40;9.60;;;;;;;3.16;100.00;100541.28;5019830;28;20210;-72
2023/02/23 07:41:58;;;;;;;24.80;10.33;;;;;;;3.23;100.00;100543.88;5016584;28;20240;-71
2023/02/23 07:44:26;;;;;;;19.73;10.07;;;;;;;3.29;100.00;100542.19;5025348;28;20449;-71
2023/02/23 07:46:52;;;;;;;21.30;10.43;;;;;;;3.35;100.00;100537.91;5007454;28;20201;-71
2023/02/23 07:49:18;;;;;;;19.33;10.23;;;;;;;3.44;100.00;100531.91;5015491;28;20201;-71
2023/02/23 07:51:45;;;;;;;20.53;9.57;;;;;;;3.53;100.00;100537.06;5010525;28;20246;-71
2023/02/23 07:54:12;;;;;;;22.27;10.37;;;;;;;3.62;100.00;100537.94;5003908;28;20294;-71
2023/02/23 07:56:38;;;;;;;25.13;9.60;;;;;;;3.68;100.00;100530.22;5025240;28;20283;-71
2023/02/23 07:59:05;;;;;;;26.20;11.37;;;;;;;3.72;100.00;100535.38;5020894;28;20215;-72
2023/02/23 08:01:33;;;;;;;17.83;10.13;;;;;;;3.81;100.00;100536.25;5019618;28;20696;-72
2023/02/23 08:03:59;;;;;;;20.27;9.90;;;;;;;3.90;100.00;100538.81;5021231;28;20857;-71
2023/02/23 08:06:26;;;;;;;17.80;10.37;;;;;;;3.93;100.00;100534.50;5010214;28;20211;-72
2023/02/23 08:08:52;;;;;;;24.27;9.70;;;;;;;4.03;100.00;100534.50;5021473;28;20725;-71
2023/02/23 08:11:18;;;;;;;19.13;10.00;;;;;;;4.13;100.00;100537.09;5020024;28;20351;-71
2023/02/23 08:13:45;;;;;;;20.53;10.33;;;;;;;4.23;100.00;100534.50;5022307;28;20193;-72
2023/02/23 08:16:11;;;;;;;14.57;9.40;;;;;;;4.31;100.00;100532.75;5020355;28;20211;-72
2023/02/23 08:18:39;;;;;;;21.30;10.23;;;;;;;4.39;100.00;100535.31;5017626;28;20200;-72
2023/02/23 08:21:06;;;;;;;19.83;10.30;;;;;;;4.47;100.00;100537.03;5015451;28;20228;-72
2023/02/23 08:23:34;;;;;;;21.67;10.77;;;;;;;4.54;100.00;100536.16;5006886;28;20216;-72
2023/02/23 08:26:02;;;;;;;18.57;9.67;;;;;;;4.65;100.00;100533.53;5025852;28;20212;-72
2023/02/23 08:28:29;;;;;;;20.93;10.50;;;;;;;4.73;100.00;100533.50;5021559;28;20196;-72
2023/02/23 08:30:56;;;;;;;22.43;11.00;;;;;;;4.85;100.00;100532.59;5020346;28;20236;-71
2023/02/23 08:33:23;;;;;;;20.47;10.27;;;;;;;4.97;100.00;100532.53;5006184;28;21663;-72
2023/02/23 08:35:52;;;;;;;20.37;10.40;;;;;;;5.06;100.00;100531.63;5018710;28;20727;-71
2023/02/23 08:38:18;;;;;;;21.70;10.20;;;;;;;5.20;100.00;100532.41;5004558;28;20203;-72
2023/02/23 08:40:45;;;;;;;19.03;10.00;;;;;;;5.32;100.00;100526.31;5019464;28;20307;-72
2023/02/23 08:43:11;;;;;;;20.30;10.40;;;;;;;5.46;100.00;100527.09;5023711;28;20231;-72
2023/02/23 08:45:38;;;;;;;18.27;10.03;;;;;;;5.56;100.00;100514.09;5026132;28;20403;-72
2023/02/23 08:48:05;;;;;;;19.17;10.00;;;;;;;5.68;100.00;100526.94;5019800;28;20204;-72
2023/02/23 08:50:32;;;;;;;18.27;10.13;;;;;;;5.77;100.00;100523.41;5024091;28;20282;-72
2023/02/23 08:53:00;;;;;;;19.07;10.90;;;;;;;5.90;100.00;100526.78;5003597;28;20210;-71
2023/02/23 08:55:27;;;;;;;17.40;10.30;;;;;;;6.04;100.00;100525.81;5005701;28;20201;-72
2023/02/23 08:57:53;;;;;;;18.53;11.33;;;;;;;6.17;100.00;100525.69;5021228;28;20197;-72
2023/02/23 09:00:20;;;;;;;18.77;10.03;;;;;;;6.31;100.00;100523.81;5018420;28;20650;-72
2023/02/23 09:02:47;;;;;;;18.40;10.57;;;;;;;6.41;100.00;100530.63;5022764;28;20227;-72
2023/02/23 09:05:14;;;;;;;21.87;10.73;;;;;;;6.50;100.00;100527.09;5017410;28;20208;-72
2023/02/23 09:07:43;;;;;;;22.17;10.60;;;;;;;6.59;100.00;100524.38;5019919;28;20199;-72
2023/02/23 09:10:14;;;;;;;21.63;10.27;;;;;;;6.70;100.00;100521.69;5022274;28;20228;-72
2023/02/23 09:12:40;;;;;;;13.10;8.33;;;;;;;6.77;100.00;100525.03;5024098;28;20195;-72
2023/02/23 09:15:08;;;;;;;18.47;10.17;;;;;;;6.83;100.00;100528.44;5017450;28;20205;-72
2023/02/23 09:17:34;;;;;;;17.70;10.93;;;;;;;6.89;100.00;100534.41;5001180;28;20207;-72
2023/02/23 09:20:01;;;;;;;19.47;10.00;;;;;;;6.94;100.00;100528.28;5021039;28;20215;-72
2023/02/23 09:22:27;;;;;;;21.40;10.30;;;;;;;7.03;100.00;100529.91;5002405;28;20207;-72
2023/02/23 09:24:53;;;;;;;19.67;10.30;;;;;;;7.12;100.00;100532.38;5020389;28;20192;-72
2023/02/23 09:27:21;;;;;;;19.87;11.00;;;;;;;7.19;100.00;100534.03;5013687;28;20197;-72
2023/02/23 09:29:48;;;;;;;18.17;11.00;;;;;;;7.30;100.00;100531.28;5021596;28;20200;-72
2023/02/23 09:32:14;;;;;;;19.57;10.97;;;;;;;7.41;100.00;100532.88;5016056;28;20728;-72
2023/02/23 09:34:40;;;;;;;16.73;9.70;;;;;;;7.50;100.00;100535.31;5024013;28;20227;-72
2023/02/23 09:37:07;;;;;;;16.60;10.33;;;;;;;7.54;100.00;100531.78;5013469;28;20204;-72
2023/02/23 09:39:33;;;;;;;18.70;10.13;;;;;;;7.63;100.00;100535.97;5018403;28;20204;-72
2023/02/23 09:42:14;;;;;;;18.43;11.00;;;;;;;7.71;100.00;100532.41;5022164;28;20311;-72
2023/02/23 09:45:03;;;;;;;18.47;10.67;;;;;;;7.77;100.00;100534.91;5022451;28;20219;-72
2023/02/23 09:47:39;;;;;;;20.87;10.33;;;;;;;7.82;100.00;100536.56;5027272;28;20669;-72
2023/02/23 09:50:16;;;;;;;22.47;11.60;;;;;;;7.93;100.00;100529.44;5001500;28;20228;-72
2023/02/23 09:52:47;;;;;;;19.47;10.60;;;;;;;8.01;100.00;100532.78;5025583;28;20199;-72
2023/02/23 09:55:15;;;;;;;20.07;11.40;;;;;;;8.05;100.00;100531.81;5024232;28;20266;-72
2023/02/23 09:57:44;;;;;;;25.87;13.87;;;;;;;8.19;100.00;100528.16;5007017;28;20657;-72
2023/02/23 10:00:17;;;;;;;15.47;9.57;;;;;;;8.27;100.00;100526.28;5005350;28;20228;-72
2023/02/23 10:02:59;;;;;;;19.97;10.47;;;;;;;8.36;100.00;100531.28;5021650;28;20194;-72
2023/02/23 10:05:30;;;;;;;18.10;10.87;;;;;;;8.43;100.00;100532.94;5023474;28;20193;-72
2023/02/23 10:08:02;;;;;;;17.37;10.10;;;;;;;8.55;100.00;100530.97;5001408;28;20208;-72
2023/02/23 10:10:38;;;;;;;17.63;10.00;;;;;;;8.63;100.00;100537.72;5003984;28;20226;-72
2023/02/23 10:13:15;;;;;;;18.97;10.53;;;;;;;8.74;100.00;100532.31;5023385;28;20200;-72
2023/02/23 10:15:50;;;;;;;18.70;9.43;;;;;;;8.87;100.00;100532.94;5018491;28;20202;-72
2023/02/23 10:18:31;;;;;;;15.60;10.13;;;;;;;8.97;100.00;100536.19;5019968;28;20206;-72
2023/02/23 10:21:05;;;;;;;18.57;10.40;;;;;;;9.04;100.00;100527.38;5003811;28;20708;-72
2023/02/23 10:23:35;;;;;;;16.13;9.20;;;;;;;9.14;100.00;100525.44;5020912;28;20559;-72
2023/02/23 10:26:03;;;;;;;13.37;8.80;;;;;;;9.22;100.00;100519.19;5018085;28;20213;-72
2023/02/23 10:28:34;;;;;;;14.67;9.20;;;;;;;9.25;100.00;100521.72;5016102;28;20195;-72
2023/02/23 10:31:07;;;;;;;13.60;9.40;;;;;;;9.33;100.00;100513.75;5018755;28;20448;-72
2023/02/23 10:33:38;;;;;;;17.60;9.37;;;;;;;9.43;100.00;100522.22;5022822;28;20233;-72
2023/02/23 10:36:13;;;;;;;14.63;8.97;;;;;;;9.54;100.00;100528.00;5024491;28;20210;-72
2023/02/23 10:38:40;;;;;;;17.70;9.47;;;;;;;9.54;100.00;100515.00;5017573;28;20581;-72
2023/02/23 10:41:07;;;;;;;14.93;8.73;;;;;;;9.59;100.00;100520.09;5013666;28;20238;-72
2023/02/23 10:43:33;;;;;;;14.83;8.27;;;;;;;9.72;100.00;100515.44;5017414;28;20247;-72
2023/02/23 10:46:00;;;;;;;14.87;9.03;;;;;;;9.78;100.00;100520.47;5015110;28;20302;-72
2023/02/23 10:48:37;;;;;;;15.33;8.43;;;;;;;9.79;100.00;100523.06;5004631;28;20200;-72
2023/02/23 10:51:04;;;;;;;12.60;8.07;;;;;;;9.89;100.00;100517.63;5020177;28;20638;-72
2023/02/23 10:53:34;;;;;;;15.47;9.63;;;;;;;9.97;100.00;100520.88;5021597;28;20187;-72
2023/02/23 10:56:04;;;;;;;11.50;8.33;;;;;;;10.04;100.00;100512.03;5018837;28;20218;-72
2023/02/23 10:58:32;;;;;;;13.00;8.60;;;;;;;10.16;100.00;100510.84;5020121;28;20200;-72
2023/02/23 11:00:59;;;;;;;13.60;8.50;;;;;;;10.32;100.00;100508.72;5016738;28;20228;-72
2023/02/23 11:03:33;;;;;;;13.27;8.00;;;;;;;10.38;100.00;100513.78;5018107;28;20222;-72
2023/02/23 11:05:59;;;;;;;11.97;7.53;;;;;;;10.41;100.00;100503.25;4997757;28;20215;-72
2023/02/23 11:08:30;;;;;;;11.17;7.87;;;;;;;10.45;100.00;100507.50;5000476;28;20195;-72
2023/02/23 11:11:03;;;;;;;15.17;8.23;;;;;;;10.38;100.00;100504.22;5013816;28;20219;-72
2023/02/23 11:13:36;;;;;;;14.43;7.70;;;;;;;10.42;100.00;100512.81;4998855;28;20196;-72
2023/02/23 11:16:08;;;;;;;14.10;8.23;;;;;;;10.49;100.00;100508.28;5014780;28;20561;-72
2023/02/23 11:18:37;;;;;;;12.80;7.60;;;;;;;10.47;100.00;100505.72;5014303;28;20196;-73
2023/02/23 11:21:10;;;;;;;12.57;7.93;;;;;;;10.53;100.00;100499.47;5014088;28;20749;-72
2023/02/23 11:23:39;;;;;;;11.60;8.07;;;;;;;10.60;100.00;100485.34;5014073;28;20219;-72
2023/02/23 11:26:21;;;;;;;13.70;7.60;;;;;;;10.67;100.00;100492.09;5015324;28;20207;-72
2023/02/23 11:28:52;;;;;;;11.57;7.67;;;;;;;10.66;100.00;100494.75;5015264;28;20202;-73
2023/02/23 11:31:20;;;;;;;15.23;8.53;;;;;;;10.73;100.00;100491.06;5000917;28;20492;-72
2023/02/23 11:33:49;;;;;;;13.10;8.27;;;;;;;10.75;100.00;100487.53;5015380;28;20565;-72
2023/02/23 11:36:25;;;;;;;10.57;7.10;;;;;;;10.83;100.00;100482.09;5002725;28;20737;-72
2023/02/23 11:39:01;;;;;;;14.73;7.70;;;;;;;10.91;100.00;100474.06;5000185;28;20202;-72
2023/02/23 11:41:30;;;;;;;9.73;7.30;;;;;;;10.98;100.00;100473.81;5014388;28;20302;-72
2023/02/23 11:43:58;;;;;;;12.63;7.97;;;;;;;11.06;100.00;100464.91;5015109;28;20235;-72
2023/02/23 11:46:27;;;;;;;10.47;7.40;;;;;;;11.06;100.00;100470.97;5015041;28;20213;-72
2023/02/23 11:48:59;;;;;;;10.67;7.50;;;;;;;11.09;100.00;100457.81;5016587;28;20200;-72
2023/02/23 11:51:27;;;;;;;14.27;7.70;;;;;;;11.13;100.00;100462.06;5019950;28;20251;-72
2023/02/23 11:53:54;;;;;;;11.57;7.90;;;;;;;11.11;100.00;100463.00;5021345;28;20205;-72
2023/02/23 11:56:24;;;;;;;12.40;7.27;;;;;;;11.16;100.00;100459.34;5022260;28;20200;-72
2023/02/23 11:58:52;;;;;;;12.33;7.57;;;;;;;11.21;100.00;100453.16;5018741;28;20246;-73
2023/02/23 12:01:23;;;;;;;10.73;7.33;;;;;;;11.21;100.00;100450.53;5017503;28;20311;-72
2023/02/23 12:03:53;;;;;;;11.10;7.43;;;;;;;11.24;100.00;100453.91;5020497;28;20709;-72
2023/02/23 12:06:30;;;;;;;13.37;7.77;;;;;;;11.33;100.00;100457.97;5022171;28;20310;-72
2023/02/23 12:09:02;;;;;;;10.27;6.77;;;;;;;11.36;100.00;100453.50;5008157;28;20224;-72
2023/02/23 12:11:33;;;;;;;11.47;7.13;;;;;;;11.46;100.00;100458.44;5023265;28;20226;-72
2023/02/23 12:14:03;;;;;;;11.47;7.10;;;;;;;11.54;100.00;100461.66;5001603;28;20228;-73
2023/02/23 12:16:35;;;;;;;11.50;7.63;;;;;;;11.55;100.00;100458.97;5018430;28;20201;-72
2023/02/23 12:19:07;;;;;;;9.90;7.57;;;;;;;11.53;100.00;100452.94;5019305;28;20197;-72
2023/02/23 12:21:41;;;;;;;11.33;7.30;;;;;;;11.52;100.00;100451.25;5018152;28;20216;-72
2023/02/23 12:24:15;;;;;;;11.07;7.80;;;;;;;11.60;100.00;100444.94;5004292;28;20225;-72
2023/02/23 12:26:47;;;;;;;12.80;8.00;;;;;;;11.61;100.00;100446.59;5019036;28;20199;-72
2023/02/23 12:29:21;;;;;;;10.93;7.60;;;;;;;11.58;100.00;100450.19;5021746;28;20277;-72
2023/02/23 12:31:52;;;;;;;13.53;7.73;;;;;;;11.66;100.00;100442.09;5015838;28;20226;-72
2023/02/23 12:34:24;;;;;;;10.33;7.70;;;;;;;11.71;100.00;100435.84;4999955;28;20208;-72
2023/02/23 12:36:57;;;;;;;9.67;6.63;;;;;;;11.75;100.00;100434.81;5016738;28;20200;-72
2023/02/23 12:39:29;;;;;;;12.77;7.67;;;;;;;11.77;100.00;100440.00;4995467;28;20201;-72
2023/02/23 12:42:05;;;;;;;11.50;7.40;;;;;;;11.74;100.00;100438.31;5022295;28;20250;-72